This is the latest recevied weather packets stored in our database for station/object K3FAZ. If no packets are shown the sender has not sent any weather packets the latest 1 day(s).
| Time | Temp. | Humidity | Pressure | Rain* | Wind** | Luminosity | Snow |
|---|---|---|---|---|---|---|---|
| 1778011067 | 21.67° C | 52% | 1010.8 hPa | 0 mm | 0.89 m/s, 61° | 104 W/m² | - |
| 1778010765 | 21.67° C | 54% | 1010.8 hPa | 0 mm | 1.34 m/s, 151° | 162 W/m² | - |
| 1778010462 | 21.67° C | 52% | 1010.9 hPa | 0 mm | 1.79 m/s, 172° | 131 W/m² | - |
| 1778010158 | 21.11° C | 52% | 1011 hPa | 0 mm | 1.34 m/s, 339° | 92 W/m² | - |
| 1778009854 | 21.11° C | 53% | 1011 hPa | 0 mm | 1.79 m/s, 189° | 64 W/m² | - |
| 1778009552 | 21.11° C | 52% | 1011.2 hPa | 0 mm | 1.79 m/s, 209° | 85 W/m² | - |
| 1778009250 | 21.67° C | 53% | 1011.1 hPa | 0 mm | 2.24 m/s, 171° | 59 W/m² | - |
| 1778008948 | 21.67° C | 51% | 1011.1 hPa | 0 mm | 1.34 m/s, 209° | 85 W/m² | - |
| 1778008645 | 21.67° C | 52% | 1011 hPa | 0 mm | 1.79 m/s, 197° | 161 W/m² | - |
| 1778008344 | 21.67° C | 51% | 1011 hPa | 0 mm | 2.68 m/s, 209° | 130 W/m² | - |
| 1778008039 | 22.22° C | 49% | 1010.7 hPa | 0 mm | 2.68 m/s, 170° | 165 W/m² | - |
| 1778007739 | 22.22° C | 50% | 1011 hPa | 0 mm | 1.34 m/s, 233° | 200 W/m² | - |
| 1778007436 | 22.78° C | 48% | 1011.1 hPa | 0 mm | 1.79 m/s, 133° | 373 W/m² | - |
| 1778007133 | 22.22° C | 47% | 1010.9 hPa | 0 mm | 4.47 m/s, 200° | 832 W/m² | - |
| 1778006829 | 22.78° C | 52% | 1010.9 hPa | 0 mm | 1.79 m/s, 205° | 461 W/m² | - |
| 1778006527 | 22.78° C | 48% | 1010.8 hPa | 0 mm | 4.47 m/s, 198° | 337 W/m² | - |
| 1778006223 | 22.78° C | 51% | 1010.8 hPa | 0 mm | 2.68 m/s, 173° | 672 W/m² | - |
| 1778005921 | 22.78° C | 46% | 1010.9 hPa | 0 mm | 4.92 m/s, 193° | 761 W/m² | - |
| 1778005616 | 22.78° C | 48% | 1011.1 hPa | 0 mm | 1.79 m/s, 194° | 756 W/m² | - |
| 1778005314 | 22.22° C | 48% | 1011.2 hPa | 0 mm | 2.24 m/s, 119° | 767 W/m² | - |
| 1778005010 | 22.22° C | 49% | 1011.1 hPa | 0 mm | 3.13 m/s, 189° | 839 W/m² | - |
| 1778004708 | 21.67° C | 51% | 1011.2 hPa | 0 mm | 3.13 m/s, 186° | 700 W/m² | - |
| 1778004404 | 21.11° C | 52% | 1011 hPa | 0 mm | 4.92 m/s, 209° | 522 W/m² | - |
| 1778004101 | 21.11° C | 53% | 1011 hPa | 0 mm | 3.13 m/s, 192° | 214 W/m² | - |
| 1778003797 | 21.11° C | 52% | 1011.1 hPa | 0 mm | 4.47 m/s, 180° | 131 W/m² | - |
* Rain latest hour (hover to see other rain measurements)
** Current wind speed in m/s (hover to see current wind gust speed)